createdAt,value
2022-12-09T00:03:23.442Z,100523.00
2022-12-09T00:09:26.557Z,100533.00
2022-12-09T00:15:28.981Z,100547.69
2022-12-09T00:21:33.041Z,100561.88
2022-12-09T00:27:35.207Z,100562.41
2022-12-09T00:33:37.756Z,100549.25
2022-12-09T00:39:40.101Z,100550.06
2022-12-09T00:45:42.950Z,100537.22
2022-12-09T00:51:46.425Z,100528.81
2022-12-09T00:57:48.667Z,100547.44
2022-12-09T01:03:51.031Z,100536.16
2022-12-09T01:09:54.167Z,100523.31
2022-12-09T01:15:56.534Z,100513.88
2022-12-09T01:21:59.627Z,100526.97
2022-12-09T01:28:02.186Z,100535.91
2022-12-09T01:34:04.512Z,100555.31
2022-12-09T01:40:12.006Z,100544.81
2022-12-09T01:46:15.794Z,100560.78
2022-12-09T01:52:24.268Z,100559.25
2022-12-09T01:58:27.222Z,100556.06
2022-12-09T02:04:32.890Z,100581.22
2022-12-09T02:10:42.865Z,100522.00
2022-12-09T02:17:14.594Z,100537.22
2022-12-09T02:23:26.950Z,100520.69
2022-12-09T02:29:57.991Z,100525.91
2022-12-09T02:36:09.817Z,100518.84
2022-12-09T02:42:20.645Z,100510.97
2022-12-09T02:48:33.437Z,100508.63
2022-12-09T02:54:40.244Z,100513.59
2022-12-09T03:00:43.288Z,100492.13
2022-12-09T03:06:53.272Z,100488.44
2022-12-09T03:13:03.973Z,100491.34
2022-12-09T03:19:14.156Z,100519.63
2022-12-09T03:25:24.565Z,100498.16
2022-12-09T03:31:32.656Z,100519.91
2022-12-09T03:37:38.985Z,100506.78
2022-12-09T03:43:48.205Z,100501.00
2022-12-09T03:49:50.886Z,100502.06
2022-12-09T03:56:09.071Z,100488.72
2022-12-09T04:02:12.607Z,100498.91
2022-12-09T04:08:15.214Z,100500.25
2022-12-09T04:14:17.802Z,100511.22
2022-12-09T04:20:20.461Z,100503.06
2022-12-09T04:26:24.364Z,100513.06
2022-12-09T04:32:26.668Z,100532.19
2022-12-09T04:38:29.067Z,100546.13
2022-12-09T04:44:32.912Z,100516.75
2022-12-09T04:50:35.378Z,100522.50
2022-12-09T04:56:37.579Z,100524.84
2022-12-09T05:02:39.755Z,100534.84
2022-12-09T05:08:42.767Z,100526.16
2022-12-09T05:14:45.938Z,100545.59
2022-12-09T05:20:48.331Z,100540.31
2022-12-09T05:26:53.052Z,100530.91
2022-12-09T05:32:56.092Z,100553.72
2022-12-09T05:38:58.536Z,100533.28
2022-12-09T05:45:03.047Z,100555.03
2022-12-09T05:51:18.707Z,100585.47
2022-12-09T05:57:21.228Z,100582.06
2022-12-09T06:03:24.653Z,100590.94
2022-12-09T06:09:27.975Z,100601.41
2022-12-09T06:15:33.497Z,100611.59
2022-12-09T06:21:40.342Z,100599.03
2022-12-09T06:27:42.811Z,100613.50
2022-12-09T06:33:54.639Z,100597.22
2022-12-09T06:39:58.345Z,100599.97
2022-12-09T06:46:02.183Z,100599.59
2022-12-09T06:52:05.219Z,100591.22
2022-12-09T06:58:09.492Z,100607.50
2022-12-09T07:04:14.796Z,100616.09
2022-12-09T07:10:18.435Z,100624.81
2022-12-09T07:16:21.251Z,100600.16
2022-12-09T07:22:23.862Z,100598.53
2022-12-09T07:28:27.560Z,100603.56
2022-12-09T07:34:30.277Z,100594.13
2022-12-09T07:40:32.797Z,100598.03
2022-12-09T07:46:37.180Z,100610.91
2022-12-09T07:52:39.730Z,100622.19
2022-12-09T07:58:43.901Z,100618.78
2022-12-09T08:04:46.223Z,100615.91
2022-12-09T08:10:50.053Z,100621.66
2022-12-09T08:16:53.312Z,100622.69
2022-12-09T08:22:58.530Z,100617.41
2022-12-09T08:29:01.874Z,100616.78
2022-12-09T08:35:06.673Z,100609.81
2022-12-09T08:41:35.888Z,100624.84
2022-12-09T08:47:38.688Z,100630.84
2022-12-09T08:53:42.201Z,100623.50
2022-12-09T08:59:53.171Z,100610.69
2022-12-09T09:06:08.760Z,100608.50
2022-12-09T09:12:18.813Z,100610.63
2022-12-09T09:18:24.245Z,100587.78
2022-12-09T09:24:26.823Z,100579.63
2022-12-09T10:33:00.523Z,100484.50
2022-12-09T10:39:06.002Z,100490.91
2022-12-09T10:45:10.088Z,100473.94
2022-12-09T10:51:20.873Z,100466.56
2022-12-09T10:57:27.442Z,100452.78
2022-12-09T11:03:32.418Z,100444.44
2022-12-09T11:09:39.748Z,100446.06
2022-12-09T11:15:46.149Z,100448.09
2022-12-09T11:21:48.583Z,100440.97
2022-12-09T11:28:21.623Z,100437.44
2022-12-09T11:34:31.031Z,100420.72
2022-12-09T11:40:34.919Z,100424.94
2022-12-09T11:46:37.981Z,100420.78
2022-12-09T11:52:43.576Z,100413.50
2022-12-09T11:58:50.508Z,100417.31
2022-12-09T12:05:01.949Z,100408.88
2022-12-09T12:11:14.907Z,100405.88
2022-12-09T12:17:26.025Z,100419.56
2022-12-09T12:23:45.146Z,100408.09
2022-12-09T12:30:10.098Z,100393.09
2022-12-09T12:36:12.210Z,100390.75
2022-12-09T12:42:32.739Z,100379.00
2022-12-09T12:49:08.897Z,100381.94
2022-12-09T12:55:19.608Z,100378.28
2022-12-09T13:01:39.073Z,100374.72
2022-12-09T13:07:59.721Z,100375.34
2022-12-09T13:14:13.081Z,100370.94
2022-12-09T13:20:49.384Z,100377.69
2022-12-09T13:26:58.787Z,100388.25
2022-12-09T13:33:22.512Z,100378.22
2022-12-09T13:39:39.935Z,100372.63
2022-12-09T13:45:51.129Z,100382.38
2022-12-09T13:51:58.460Z,100390.59
2022-12-09T13:58:15.968Z,100368.34
2022-12-09T14:04:24.849Z,100362.09
2022-12-09T14:10:45.466Z,100375.25
2022-12-09T14:16:47.460Z,100371.84
2022-12-09T14:23:05.058Z,100364.91
2022-12-09T14:29:08.173Z,100367.66
2022-12-09T14:35:13.758Z,100368.88
2022-12-09T14:41:30.369Z,100360.06
2022-12-09T14:47:39.699Z,100343.97
2022-12-09T14:53:42.678Z,100346.97
2022-12-09T14:59:54.190Z,100351.56
2022-12-09T15:06:02.826Z,100340.06
2022-12-09T15:12:11.768Z,100324.78
2022-12-09T15:18:25.774Z,100320.06
2022-12-09T15:24:48.913Z,100317.09
2022-12-09T15:31:02.389Z,100316.22
2022-12-09T15:37:06.425Z,100317.34
2022-12-09T15:43:13.187Z,100314.31
2022-12-09T15:49:21.373Z,100302.34
2022-12-09T15:55:36.931Z,100291.09
2022-12-09T16:01:39.014Z,100278.81
2022-12-09T16:07:59.018Z,100267.13
2022-12-09T16:14:01.628Z,100263.78
2022-12-09T16:20:40.123Z,100265.53
2022-12-09T16:26:47.065Z,100263.16
2022-12-09T16:32:54.504Z,100255.09
2022-12-09T16:39:09.331Z,100247.22
2022-12-09T16:45:30.453Z,100250.75
2022-12-09T16:51:33.804Z,100249.59
2022-12-09T16:57:37.626Z,100250.13
2022-12-09T17:04:04.494Z,100238.56
2022-12-09T17:10:08.338Z,100240.50
2022-12-09T17:16:10.976Z,100246.78
2022-12-09T17:22:14.336Z,100225.88
2022-12-09T17:28:17.343Z,100226.59
2022-12-09T17:34:20.308Z,100208.59
2022-12-09T17:40:22.613Z,100209.13
2022-12-09T17:46:24.927Z,100196.22
2022-12-09T17:52:27.211Z,100199.22
2022-12-09T17:58:29.193Z,100203.34
2022-12-09T18:04:32.305Z,100194.69
2022-12-09T18:10:34.891Z,100189.38
2022-12-09T18:16:39.159Z,100190.59
2022-12-09T18:22:42.354Z,100179.66
2022-12-09T18:28:47.098Z,100191.88
2022-12-09T18:34:49.461Z,100179.53
2022-12-09T18:41:03.738Z,100178.00
2022-12-09T18:47:06.843Z,100175.88
2022-12-09T18:53:13.303Z,100170.97
2022-12-09T18:59:16.864Z,100173.97
2022-12-09T19:05:19.347Z,100178.03
2022-12-09T19:11:22.908Z,100160.81
2022-12-09T19:17:25.796Z,100159.38
2022-12-09T19:23:27.871Z,100146.25
2022-12-09T19:29:29.882Z,100148.03
2022-12-09T19:35:32.915Z,100153.34
2022-12-09T19:41:37.328Z,100141.53
2022-12-09T19:47:40.725Z,100150.88
2022-12-09T19:53:44.417Z,100149.28
2022-12-09T19:59:47.541Z,100146.25
2022-12-09T20:05:52.830Z,100135.75
2022-12-09T20:11:56.211Z,100133.41
2022-12-09T20:17:58.705Z,100114.28
2022-12-09T20:24:02.675Z,100100.53
2022-12-09T20:30:07.310Z,100094.19
2022-12-09T20:36:16.460Z,100088.50
2022-12-09T20:42:21.126Z,100087.34
2022-12-09T20:48:23.915Z,100092.94
2022-12-09T20:54:26.243Z,100084.59
2022-12-09T21:00:29.653Z,100089.31
2022-12-09T21:06:36.050Z,100084.84
2022-12-09T21:12:41.666Z,100068.75
2022-12-09T21:18:44.344Z,100063.34
2022-12-09T21:24:47.450Z,100068.34
2022-12-09T21:30:49.530Z,100058.44
2022-12-09T21:36:53.875Z,100053.00
2022-12-09T21:42:57.436Z,100038.13
2022-12-09T21:49:04.271Z,100040.00
2022-12-09T21:55:10.667Z,100030.09
2022-12-09T22:01:17.973Z,100012.25
2022-12-09T22:07:20.488Z,100009.38
2022-12-09T22:13:23.267Z,100004.28
2022-12-09T22:19:27.004Z,100000.00
2022-12-09T22:25:29.295Z,99979.34
2022-12-09T22:31:35.962Z,99970.75
2022-12-09T22:37:45.360Z,99952.78
2022-12-09T22:43:53.401Z,99946.66
2022-12-09T22:49:56.763Z,99954.41
2022-12-09T22:55:59.279Z,99958.84
2022-12-09T23:02:04.856Z,99955.81
2022-12-09T23:08:08.985Z,99955.19
2022-12-09T23:14:14.806Z,99960.75
2022-12-09T23:20:17.575Z,99957.94
2022-12-09T23:26:24.357Z,99948.75
2022-12-09T23:32:26.800Z,99945.44
2022-12-09T23:38:29.907Z,99941.75
2022-12-09T23:44:32.453Z,99938.09
2022-12-09T23:50:34.552Z,99922.78
2022-12-09T23:56:44.563Z,99928.69
